sensor_id;sensor_type;location;lat;lon;timestamp;P1;durP1;ratioP1;P2;durP2;ratioP2
76063;SDS011;64762;52.006;8.424;2023-09-19T00:01:31;11.60;;;2.92;;
76063;SDS011;64762;52.006;8.424;2023-09-19T00:03:57;7.57;;;3.00;;
76063;SDS011;64762;52.006;8.424;2023-09-19T00:06:23;4.60;;;2.05;;
76063;SDS011;64762;52.006;8.424;2023-09-19T00:08:51;9.68;;;2.40;;
76063;SDS011;64762;52.006;8.424;2023-09-19T00:11:17;5.85;;;2.13;;
76063;SDS011;64762;52.006;8.424;2023-09-19T00:13:42;5.63;;;2.43;;
76063;SDS011;64762;52.006;8.424;2023-09-19T00:16:09;7.00;;;2.50;;
76063;SDS011;64762;52.006;8.424;2023-09-19T00:18:35;12.00;;;2.80;;
76063;SDS011;64762;52.006;8.424;2023-09-19T00:21:01;6.90;;;2.60;;
76063;SDS011;64762;52.006;8.424;2023-09-19T00:23:29;9.65;;;2.53;;
76063;SDS011;64762;52.006;8.424;2023-09-19T00:25:58;9.38;;;2.58;;
76063;SDS011;64762;52.006;8.424;2023-09-19T00:28:24;6.07;;;2.05;;
76063;SDS011;64762;52.006;8.424;2023-09-19T00:30:49;9.47;;;2.67;;
76063;SDS011;64762;52.006;8.424;2023-09-19T00:33:19;5.95;;;2.35;;
76063;SDS011;64762;52.006;8.424;2023-09-19T00:35:48;6.28;;;2.28;;
76063;SDS011;64762;52.006;8.424;2023-09-19T00:38:14;9.40;;;2.53;;
76063;SDS011;64762;52.006;8.424;2023-09-19T00:40:46;10.73;;;2.40;;
76063;SDS011;64762;52.006;8.424;2023-09-19T00:43:12;4.93;;;2.60;;
76063;SDS011;64762;52.006;8.424;2023-09-19T00:45:37;5.80;;;2.23;;
76063;SDS011;64762;52.006;8.424;2023-09-19T00:48:04;7.65;;;2.78;;
76063;SDS011;64762;52.006;8.424;2023-09-19T00:50:32;8.15;;;2.45;;
76063;SDS011;64762;52.006;8.424;2023-09-19T00:52:58;7.90;;;2.58;;
76063;SDS011;64762;52.006;8.424;2023-09-19T00:55:23;8.85;;;2.70;;
76063;SDS011;64762;52.006;8.424;2023-09-19T00:57:49;12.48;;;3.97;;
76063;SDS011;64762;52.006;8.424;2023-09-19T01:00:15;7.33;;;2.87;;
76063;SDS011;64762;52.006;8.424;2023-09-19T01:02:41;10.20;;;2.45;;
76063;SDS011;64762;52.006;8.424;2023-09-19T01:05:08;8.50;;;2.80;;
76063;SDS011;64762;52.006;8.424;2023-09-19T01:07:33;8.13;;;2.88;;
76063;SDS011;64762;52.006;8.424;2023-09-19T01:09:59;14.07;;;3.28;;
76063;SDS011;64762;52.006;8.424;2023-09-19T01:12:31;8.82;;;3.30;;
76063;SDS011;64762;52.006;8.424;2023-09-19T01:15:02;13.23;;;3.55;;
76063;SDS011;64762;52.006;8.424;2023-09-19T01:17:34;14.23;;;3.97;;
76063;SDS011;64762;52.006;8.424;2023-09-19T01:23:11;7.50;;;3.10;;
76063;SDS011;64762;52.006;8.424;2023-09-19T01:28:32;8.43;;;3.40;;
76063;SDS011;64762;52.006;8.424;2023-09-19T01:31:03;11.70;;;3.30;;
76063;SDS011;64762;52.006;8.424;2023-09-19T01:33:53;7.55;;;3.05;;
76063;SDS011;64762;52.006;8.424;2023-09-19T01:36:25;7.55;;;3.13;;
76063;SDS011;64762;52.006;8.424;2023-09-19T01:38:51;9.57;;;3.20;;
76063;SDS011;64762;52.006;8.424;2023-09-19T01:41:17;8.88;;;2.90;;
76063;SDS011;64762;52.006;8.424;2023-09-19T01:43:48;11.27;;;3.03;;
76063;SDS011;64762;52.006;8.424;2023-09-19T01:46:23;12.15;;;3.13;;
76063;SDS011;64762;52.006;8.424;2023-09-19T01:48:58;9.73;;;3.00;;
76063;SDS011;64762;52.006;8.424;2023-09-19T01:54:36;9.65;;;3.20;;
76063;SDS011;64762;52.006;8.424;2023-09-19T02:00:15;7.70;;;2.88;;
76063;SDS011;64762;52.006;8.424;2023-09-19T02:02:42;6.90;;;3.40;;
76063;SDS011;64762;52.006;8.424;2023-09-19T02:05:09;8.02;;;2.67;;
76063;SDS011;64762;52.006;8.424;2023-09-19T02:07:35;11.25;;;2.90;;
76063;SDS011;64762;52.006;8.424;2023-09-19T02:10:00;11.15;;;2.75;;
76063;SDS011;64762;52.006;8.424;2023-09-19T02:12:26;8.93;;;2.90;;
76063;SDS011;64762;52.006;8.424;2023-09-19T02:14:52;7.53;;;3.08;;
76063;SDS011;64762;52.006;8.424;2023-09-19T02:17:17;9.03;;;3.73;;
76063;SDS011;64762;52.006;8.424;2023-09-19T02:19:42;9.77;;;3.20;;
76063;SDS011;64762;52.006;8.424;2023-09-19T02:22:08;8.63;;;2.85;;
76063;SDS011;64762;52.006;8.424;2023-09-19T02:24:35;10.35;;;2.65;;
76063;SDS011;64762;52.006;8.424;2023-09-19T02:27:01;11.10;;;3.03;;
76063;SDS011;64762;52.006;8.424;2023-09-19T02:29:29;7.95;;;2.80;;
76063;SDS011;64762;52.006;8.424;2023-09-19T02:31:54;9.57;;;2.97;;
76063;SDS011;64762;52.006;8.424;2023-09-19T02:34:21;7.38;;;3.08;;
76063;SDS011;64762;52.006;8.424;2023-09-19T02:36:46;12.30;;;2.58;;
76063;SDS011;64762;52.006;8.424;2023-09-19T02:39:12;11.53;;;2.67;;
76063;SDS011;64762;52.006;8.424;2023-09-19T02:41:37;9.27;;;2.55;;
76063;SDS011;64762;52.006;8.424;2023-09-19T02:44:03;15.87;;;2.80;;
76063;SDS011;64762;52.006;8.424;2023-09-19T02:46:32;9.20;;;3.03;;
76063;SDS011;64762;52.006;8.424;2023-09-19T02:49:01;7.72;;;2.45;;
76063;SDS011;64762;52.006;8.424;2023-09-19T02:51:30;8.30;;;1.92;;
76063;SDS011;64762;52.006;8.424;2023-09-19T02:53:55;8.98;;;2.05;;
76063;SDS011;64762;52.006;8.424;2023-09-19T02:56:21;8.63;;;2.43;;
76063;SDS011;64762;52.006;8.424;2023-09-19T02:58:47;10.48;;;2.15;;
76063;SDS011;64762;52.006;8.424;2023-09-19T03:01:13;12.25;;;2.70;;
76063;SDS011;64762;52.006;8.424;2023-09-19T03:03:39;9.10;;;2.55;;
76063;SDS011;64762;52.006;8.424;2023-09-19T03:06:05;7.55;;;2.28;;
76063;SDS011;64762;52.006;8.424;2023-09-19T03:08:33;10.52;;;2.25;;
76063;SDS011;64762;52.006;8.424;2023-09-19T03:11:00;12.65;;;2.97;;
76063;SDS011;64762;52.006;8.424;2023-09-19T03:13:27;14.63;;;2.60;;
76063;SDS011;64762;52.006;8.424;2023-09-19T03:15:54;11.03;;;2.57;;
76063;SDS011;64762;52.006;8.424;2023-09-19T03:18:21;16.95;;;2.60;;
76063;SDS011;64762;52.006;8.424;2023-09-19T03:20:54;13.27;;;3.80;;
76063;SDS011;64762;52.006;8.424;2023-09-19T03:23:25;12.88;;;3.35;;
76063;SDS011;64762;52.006;8.424;2023-09-19T03:25:51;7.70;;;2.45;;
76063;SDS011;64762;52.006;8.424;2023-09-19T03:28:17;8.48;;;2.05;;
76063;SDS011;64762;52.006;8.424;2023-09-19T03:30:43;6.70;;;2.42;;
76063;SDS011;64762;52.006;8.424;2023-09-19T03:33:08;10.90;;;2.60;;
76063;SDS011;64762;52.006;8.424;2023-09-19T03:35:35;13.43;;;2.85;;
76063;SDS011;64762;52.006;8.424;2023-09-19T03:38:01;14.38;;;2.47;;
76063;SDS011;64762;52.006;8.424;2023-09-19T03:40:28;14.13;;;2.65;;
76063;SDS011;64762;52.006;8.424;2023-09-19T03:42:53;11.00;;;2.87;;
76063;SDS011;64762;52.006;8.424;2023-09-19T03:45:18;11.27;;;2.45;;
76063;SDS011;64762;52.006;8.424;2023-09-19T03:47:44;12.63;;;2.10;;
76063;SDS011;64762;52.006;8.424;2023-09-19T03:50:12;10.75;;;1.95;;
76063;SDS011;64762;52.006;8.424;2023-09-19T03:52:40;10.25;;;1.92;;
76063;SDS011;64762;52.006;8.424;2023-09-19T03:55:05;12.47;;;2.47;;
76063;SDS011;64762;52.006;8.424;2023-09-19T03:57:31;15.82;;;2.63;;
76063;SDS011;64762;52.006;8.424;2023-09-19T03:59:56;6.68;;;1.83;;
76063;SDS011;64762;52.006;8.424;2023-09-19T04:02:22;9.60;;;2.13;;
76063;SDS011;64762;52.006;8.424;2023-09-19T04:04:51;11.27;;;2.55;;
76063;SDS011;64762;52.006;8.424;2023-09-19T04:07:17;10.10;;;2.17;;
76063;SDS011;64762;52.006;8.424;2023-09-19T04:09:43;9.48;;;2.80;;
76063;SDS011;64762;52.006;8.424;2023-09-19T04:12:09;14.00;;;2.73;;
76063;SDS011;64762;52.006;8.424;2023-09-19T04:14:34;9.30;;;2.83;;
76063;SDS011;64762;52.006;8.424;2023-09-19T04:16:59;12.87;;;2.10;;
76063;SDS011;64762;52.006;8.424;2023-09-19T04:19:25;8.07;;;1.90;;
76063;SDS011;64762;52.006;8.424;2023-09-19T04:21:51;10.90;;;2.00;;
76063;SDS011;64762;52.006;8.424;2023-09-19T04:24:16;8.13;;;1.80;;
76063;SDS011;64762;52.006;8.424;2023-09-19T04:26:44;11.32;;;2.20;;
76063;SDS011;64762;52.006;8.424;2023-09-19T04:29:09;14.50;;;2.83;;
76063;SDS011;64762;52.006;8.424;2023-09-19T04:31:36;12.75;;;2.42;;
76063;SDS011;64762;52.006;8.424;2023-09-19T04:34:09;9.75;;;2.20;;
76063;SDS011;64762;52.006;8.424;2023-09-19T04:36:35;16.23;;;3.30;;
76063;SDS011;64762;52.006;8.424;2023-09-19T04:39:02;17.05;;;2.35;;
76063;SDS011;64762;52.006;8.424;2023-09-19T04:41:30;17.95;;;2.38;;
76063;SDS011;64762;52.006;8.424;2023-09-19T04:43:55;15.10;;;2.33;;
76063;SDS011;64762;52.006;8.424;2023-09-19T04:46:20;9.57;;;2.53;;
76063;SDS011;64762;52.006;8.424;2023-09-19T04:48:46;14.63;;;2.60;;
76063;SDS011;64762;52.006;8.424;2023-09-19T04:51:11;11.47;;;2.63;;
76063;SDS011;64762;52.006;8.424;2023-09-19T04:53:37;16.23;;;2.10;;
76063;SDS011;64762;52.006;8.424;2023-09-19T04:56:02;15.07;;;2.20;;
76063;SDS011;64762;52.006;8.424;2023-09-19T04:58:28;17.13;;;2.33;;
76063;SDS011;64762;52.006;8.424;2023-09-19T05:00:54;13.43;;;2.63;;
76063;SDS011;64762;52.006;8.424;2023-09-19T05:03:19;12.45;;;2.75;;
76063;SDS011;64762;52.006;8.424;2023-09-19T05:05:45;10.18;;;2.38;;
76063;SDS011;64762;52.006;8.424;2023-09-19T05:08:11;14.77;;;2.47;;
76063;SDS011;64762;52.006;8.424;2023-09-19T05:10:39;19.00;;;2.85;;
76063;SDS011;64762;52.006;8.424;2023-09-19T05:13:04;14.85;;;3.20;;
76063;SDS011;64762;52.006;8.424;2023-09-19T05:15:30;18.67;;;2.93;;
76063;SDS011;64762;52.006;8.424;2023-09-19T05:17:56;11.52;;;2.50;;
76063;SDS011;64762;52.006;8.424;2023-09-19T05:20:21;13.03;;;2.63;;
76063;SDS011;64762;52.006;8.424;2023-09-19T05:23:01;13.13;;;2.55;;
76063;SDS011;64762;52.006;8.424;2023-09-19T05:25:31;14.88;;;2.17;;
76063;SDS011;64762;52.006;8.424;2023-09-19T05:28:00;17.92;;;2.65;;
76063;SDS011;64762;52.006;8.424;2023-09-19T05:30:28;12.85;;;2.80;;
76063;SDS011;64762;52.006;8.424;2023-09-19T05:32:54;16.42;;;2.38;;
76063;SDS011;64762;52.006;8.424;2023-09-19T05:35:20;9.77;;;2.53;;
76063;SDS011;64762;52.006;8.424;2023-09-19T05:37:47;15.07;;;2.38;;
76063;SDS011;64762;52.006;8.424;2023-09-19T05:40:15;15.30;;;2.97;;
76063;SDS011;64762;52.006;8.424;2023-09-19T05:42:41;14.82;;;2.35;;
76063;SDS011;64762;52.006;8.424;2023-09-19T05:45:09;11.05;;;2.08;;
76063;SDS011;64762;52.006;8.424;2023-09-19T05:47:37;11.40;;;2.22;;
76063;SDS011;64762;52.006;8.424;2023-09-19T05:50:03;15.45;;;2.42;;
76063;SDS011;64762;52.006;8.424;2023-09-19T05:52:30;8.80;;;2.28;;
76063;SDS011;64762;52.006;8.424;2023-09-19T05:54:55;12.35;;;2.53;;
76063;SDS011;64762;52.006;8.424;2023-09-19T05:57:21;14.95;;;2.17;;
76063;SDS011;64762;52.006;8.424;2023-09-19T05:59:47;18.90;;;2.60;;
76063;SDS011;64762;52.006;8.424;2023-09-19T06:02:14;20.90;;;3.40;;
76063;SDS011;64762;52.006;8.424;2023-09-19T06:04:40;15.77;;;2.13;;
76063;SDS011;64762;52.006;8.424;2023-09-19T06:07:06;11.02;;;2.20;;
76063;SDS011;64762;52.006;8.424;2023-09-19T06:09:31;11.52;;;2.10;;
76063;SDS011;64762;52.006;8.424;2023-09-19T06:11:57;11.32;;;2.10;;
76063;SDS011;64762;52.006;8.424;2023-09-19T06:14:22;15.55;;;2.15;;
76063;SDS011;64762;52.006;8.424;2023-09-19T06:16:49;12.05;;;2.00;;
76063;SDS011;64762;52.006;8.424;2023-09-19T06:19:15;9.32;;;2.60;;
76063;SDS011;64762;52.006;8.424;2023-09-19T06:21:40;17.83;;;2.43;;
76063;SDS011;64762;52.006;8.424;2023-09-19T06:24:05;9.87;;;1.70;;
76063;SDS011;64762;52.006;8.424;2023-09-19T06:26:31;9.77;;;2.10;;
76063;SDS011;64762;52.006;8.424;2023-09-19T06:28:57;7.80;;;2.15;;
76063;SDS011;64762;52.006;8.424;2023-09-19T06:31:24;8.63;;;1.60;;
76063;SDS011;64762;52.006;8.424;2023-09-19T06:33:51;10.75;;;1.92;;
76063;SDS011;64762;52.006;8.424;2023-09-19T06:36:17;10.07;;;1.75;;
76063;SDS011;64762;52.006;8.424;2023-09-19T06:38:42;15.90;;;1.90;;
76063;SDS011;64762;52.006;8.424;2023-09-19T06:41:07;10.87;;;2.00;;
76063;SDS011;64762;52.006;8.424;2023-09-19T06:43:34;4.68;;;1.50;;
76063;SDS011;64762;52.006;8.424;2023-09-19T06:46:00;8.57;;;1.58;;
76063;SDS011;64762;52.006;8.424;2023-09-19T06:48:29;10.82;;;2.10;;
76063;SDS011;64762;52.006;8.424;2023-09-19T06:50:57;7.07;;;1.67;;
76063;SDS011;64762;52.006;8.424;2023-09-19T06:53:27;7.55;;;2.03;;
76063;SDS011;64762;52.006;8.424;2023-09-19T07:24:36;10.32;;;1.92;;
76063;SDS011;64762;52.006;8.424;2023-09-19T07:27:03;7.55;;;1.50;;
76063;SDS011;64762;52.006;8.424;2023-09-19T07:29:30;12.85;;;1.80;;
76063;SDS011;64762;52.006;8.424;2023-09-19T07:31:55;14.13;;;2.17;;
76063;SDS011;64762;52.006;8.424;2023-09-19T07:34:21;11.52;;;1.88;;
76063;SDS011;64762;52.006;8.424;2023-09-19T07:36:48;12.07;;;1.80;;
76063;SDS011;64762;52.006;8.424;2023-09-19T07:39:13;7.17;;;1.53;;
76063;SDS011;64762;52.006;8.424;2023-09-19T07:41:38;8.10;;;1.63;;
76063;SDS011;64762;52.006;8.424;2023-09-19T07:44:04;9.00;;;1.60;;
76063;SDS011;64762;52.006;8.424;2023-09-19T07:46:29;9.05;;;1.90;;
76063;SDS011;64762;52.006;8.424;2023-09-19T07:48:56;8.93;;;1.85;;
76063;SDS011;64762;52.006;8.424;2023-09-19T07:51:21;9.38;;;1.70;;
76063;SDS011;64762;52.006;8.424;2023-09-19T07:53:47;13.17;;;2.10;;
76063;SDS011;64762;52.006;8.424;2023-09-19T07:56:13;22.77;;;2.20;;
76063;SDS011;64762;52.006;8.424;2023-09-19T07:58:39;11.38;;;1.88;;
76063;SDS011;64762;52.006;8.424;2023-09-19T08:01:06;11.90;;;1.73;;
76063;SDS011;64762;52.006;8.424;2023-09-19T08:03:32;15.07;;;1.90;;
76063;SDS011;64762;52.006;8.424;2023-09-19T08:06:05;10.05;;;2.10;;
76063;SDS011;64762;52.006;8.424;2023-09-19T08:08:32;8.57;;;1.70;;
76063;SDS011;64762;52.006;8.424;2023-09-19T08:10:59;9.40;;;1.52;;
76063;SDS011;64762;52.006;8.424;2023-09-19T08:13:25;8.15;;;1.60;;
76063;SDS011;64762;52.006;8.424;2023-09-19T08:15:51;12.80;;;2.20;;
76063;SDS011;64762;52.006;8.424;2023-09-19T08:18:18;12.00;;;1.63;;
76063;SDS011;64762;52.006;8.424;2023-09-19T08:20:43;11.33;;;2.20;;
76063;SDS011;64762;52.006;8.424;2023-09-19T08:23:14;12.15;;;2.20;;
76063;SDS011;64762;52.006;8.424;2023-09-19T08:25:39;14.05;;;2.28;;
76063;SDS011;64762;52.006;8.424;2023-09-19T08:28:06;7.40;;;1.43;;
76063;SDS011;64762;52.006;8.424;2023-09-19T08:30:33;9.68;;;1.88;;
76063;SDS011;64762;52.006;8.424;2023-09-19T08:32:59;12.38;;;1.92;;
76063;SDS011;64762;52.006;8.424;2023-09-19T08:35:26;22.00;;;2.33;;
76063;SDS011;64762;52.006;8.424;2023-09-19T08:37:52;7.75;;;1.58;;
76063;SDS011;64762;52.006;8.424;2023-09-19T08:40:17;15.07;;;2.25;;
76063;SDS011;64762;52.006;8.424;2023-09-19T08:42:54;13.38;;;2.50;;
76063;SDS011;64762;52.006;8.424;2023-09-19T08:45:21;14.30;;;2.05;;
76063;SDS011;64762;52.006;8.424;2023-09-19T08:51:10;9.75;;;1.90;;
76063;SDS011;64762;52.006;8.424;2023-09-19T08:53:41;12.65;;;1.98;;
76063;SDS011;64762;52.006;8.424;2023-09-19T08:56:08;12.75;;;2.08;;
76063;SDS011;64762;52.006;8.424;2023-09-19T08:58:38;10.32;;;1.98;;
76063;SDS011;64762;52.006;8.424;2023-09-19T09:01:08;8.05;;;2.42;;
76063;SDS011;64762;52.006;8.424;2023-09-19T09:03:35;10.65;;;2.42;;
76063;SDS011;64762;52.006;8.424;2023-09-19T09:06:02;11.98;;;2.35;;
76063;SDS011;64762;52.006;8.424;2023-09-19T09:08:28;11.63;;;2.53;;
76063;SDS011;64762;52.006;8.424;2023-09-19T09:10:56;10.75;;;2.83;;
76063;SDS011;64762;52.006;8.424;2023-09-19T09:13:22;17.30;;;2.40;;
76063;SDS011;64762;52.006;8.424;2023-09-19T09:15:51;11.23;;;2.53;;
76063;SDS011;64762;52.006;8.424;2023-09-19T09:18:16;11.23;;;2.28;;
76063;SDS011;64762;52.006;8.424;2023-09-19T09:20:43;10.27;;;2.72;;
76063;SDS011;64762;52.006;8.424;2023-09-19T09:23:09;7.95;;;2.13;;
76063;SDS011;64762;52.006;8.424;2023-09-19T09:25:48;12.30;;;2.10;;
76063;SDS011;64762;52.006;8.424;2023-09-19T09:28:27;7.57;;;2.03;;
76063;SDS011;64762;52.006;8.424;2023-09-19T09:30:54;15.65;;;2.42;;
76063;SDS011;64762;52.006;8.424;2023-09-19T09:33:20;8.65;;;2.30;;
76063;SDS011;64762;52.006;8.424;2023-09-19T09:35:56;14.95;;;2.58;;
76063;SDS011;64762;52.006;8.424;2023-09-19T09:38:23;9.02;;;2.03;;
76063;SDS011;64762;52.006;8.424;2023-09-19T09:40:53;8.65;;;2.45;;
76063;SDS011;64762;52.006;8.424;2023-09-19T09:49:03;9.50;;;2.33;;
76063;SDS011;64762;52.006;8.424;2023-09-19T09:51:51;10.80;;;2.40;;
76063;SDS011;64762;52.006;8.424;2023-09-19T09:54:25;13.10;;;2.90;;
76063;SDS011;64762;52.006;8.424;2023-09-19T09:57:00;13.20;;;2.97;;
76063;SDS011;64762;52.006;8.424;2023-09-19T09:59:45;13.70;;;2.67;;
76063;SDS011;64762;52.006;8.424;2023-09-19T10:02:30;10.38;;;2.20;;
76063;SDS011;64762;52.006;8.424;2023-09-19T10:07:46;10.93;;;2.55;;
76063;SDS011;64762;52.006;8.424;2023-09-19T10:10:30;12.68;;;2.88;;
76063;SDS011;64762;52.006;8.424;2023-09-19T10:13:03;9.05;;;2.08;;
76063;SDS011;64762;52.006;8.424;2023-09-19T10:15:31;10.30;;;2.17;;
76063;SDS011;64762;52.006;8.424;2023-09-19T10:18:00;8.65;;;2.13;;
76063;SDS011;64762;52.006;8.424;2023-09-19T10:20:26;12.27;;;3.13;;
76063;SDS011;64762;52.006;8.424;2023-09-19T10:22:55;12.73;;;2.25;;
76063;SDS011;64762;52.006;8.424;2023-09-19T10:25:25;7.43;;;2.05;;
76063;SDS011;64762;52.006;8.424;2023-09-19T10:27:53;12.43;;;2.85;;
76063;SDS011;64762;52.006;8.424;2023-09-19T10:30:20;13.30;;;2.80;;
76063;SDS011;64762;52.006;8.424;2023-09-19T10:32:47;10.98;;;2.53;;
76063;SDS011;64762;52.006;8.424;2023-09-19T10:35:26;7.82;;;2.03;;
76063;SDS011;64762;52.006;8.424;2023-09-19T10:37:53;11.13;;;2.35;;
76063;SDS011;64762;52.006;8.424;2023-09-19T10:40:20;7.35;;;1.92;;
76063;SDS011;64762;52.006;8.424;2023-09-19T10:42:46;15.13;;;2.17;;
76063;SDS011;64762;52.006;8.424;2023-09-19T10:45:13;14.13;;;2.38;;
76063;SDS011;64762;52.006;8.424;2023-09-19T10:47:40;4.95;;;2.15;;
76063;SDS011;64762;52.006;8.424;2023-09-19T10:50:06;10.07;;;1.77;;
76063;SDS011;64762;52.006;8.424;2023-09-19T10:52:38;10.50;;;2.10;;
76063;SDS011;64762;52.006;8.424;2023-09-19T10:55:06;10.60;;;2.80;;
76063;SDS011;64762;52.006;8.424;2023-09-19T10:57:32;15.73;;;2.58;;
76063;SDS011;64762;52.006;8.424;2023-09-19T11:00:07;7.53;;;2.55;;
76063;SDS011;64762;52.006;8.424;2023-09-19T11:03:22;9.05;;;2.13;;
76063;SDS011;64762;52.006;8.424;2023-09-19T11:05:43;11.27;;;1.70;;
76063;SDS011;64762;52.006;8.424;2023-09-19T11:08:25;8.32;;;1.70;;
76063;SDS011;64762;52.006;8.424;2023-09-19T11:10:51;7.57;;;1.75;;
76063;SDS011;64762;52.006;8.424;2023-09-19T11:26:47;9.32;;;1.80;;
76063;SDS011;64762;52.006;8.424;2023-09-19T11:29:33;8.02;;;1.90;;
76063;SDS011;64762;52.006;8.424;2023-09-19T11:31:58;6.88;;;1.73;;
76063;SDS011;64762;52.006;8.424;2023-09-19T11:40:06;6.68;;;1.70;;
76063;SDS011;64762;52.006;8.424;2023-09-19T11:42:47;14.60;;;2.90;;
76063;SDS011;64762;52.006;8.424;2023-09-19T11:48:12;7.05;;;1.85;;
76063;SDS011;64762;52.006;8.424;2023-09-19T11:50:42;7.68;;;1.85;;
76063;SDS011;64762;52.006;8.424;2023-09-19T11:53:09;9.45;;;2.28;;
76063;SDS011;64762;52.006;8.424;2023-09-19T11:55:36;7.22;;;1.90;;
76063;SDS011;64762;52.006;8.424;2023-09-19T11:58:08;8.00;;;1.60;;
76063;SDS011;64762;52.006;8.424;2023-09-19T12:00:33;14.85;;;2.10;;
76063;SDS011;64762;52.006;8.424;2023-09-19T12:03:01;9.40;;;2.00;;
76063;SDS011;64762;52.006;8.424;2023-09-19T12:05:33;7.63;;;1.77;;
76063;SDS011;64762;52.006;8.424;2023-09-19T12:07:59;10.65;;;1.80;;
76063;SDS011;64762;52.006;8.424;2023-09-19T12:10:24;12.35;;;1.85;;
76063;SDS011;64762;52.006;8.424;2023-09-19T12:12:50;7.68;;;1.50;;
76063;SDS011;64762;52.006;8.424;2023-09-19T12:15:22;10.65;;;2.63;;
76063;SDS011;64762;52.006;8.424;2023-09-19T12:17:53;7.18;;;1.77;;
76063;SDS011;64762;52.006;8.424;2023-09-19T12:20:19;10.73;;;2.63;;
76063;SDS011;64762;52.006;8.424;2023-09-19T12:22:46;7.90;;;3.55;;
76063;SDS011;64762;52.006;8.424;2023-09-19T12:25:14;10.50;;;1.95;;
76063;SDS011;64762;52.006;8.424;2023-09-19T12:27:42;7.65;;;1.70;;
76063;SDS011;64762;52.006;8.424;2023-09-19T12:30:21;9.75;;;1.73;;
76063;SDS011;64762;52.006;8.424;2023-09-19T12:32:52;11.20;;;2.88;;
76063;SDS011;64762;52.006;8.424;2023-09-19T12:35:27;8.27;;;1.77;;
76063;SDS011;64762;52.006;8.424;2023-09-19T12:37:53;9.15;;;1.90;;
76063;SDS011;64762;52.006;8.424;2023-09-19T12:40:20;10.60;;;2.03;;
76063;SDS011;64762;52.006;8.424;2023-09-19T12:42:53;4.40;;;1.58;;
76063;SDS011;64762;52.006;8.424;2023-09-19T12:45:20;7.80;;;1.77;;
76063;SDS011;64762;52.006;8.424;2023-09-19T12:50:59;9.30;;;1.48;;
76063;SDS011;64762;52.006;8.424;2023-09-19T12:53:34;5.95;;;1.65;;
76063;SDS011;64762;52.006;8.424;2023-09-19T12:56:11;9.80;;;2.47;;
76063;SDS011;64762;52.006;8.424;2023-09-19T13:01:22;9.52;;;1.90;;
76063;SDS011;64762;52.006;8.424;2023-09-19T13:06:47;15.70;;;1.63;;
76063;SDS011;64762;52.006;8.424;2023-09-19T13:09:14;14.63;;;1.90;;
76063;SDS011;64762;52.006;8.424;2023-09-19T13:11:40;11.45;;;2.00;;
76063;SDS011;64762;52.006;8.424;2023-09-19T13:14:24;6.18;;;1.33;;
76063;SDS011;64762;52.006;8.424;2023-09-19T13:16:56;5.32;;;1.70;;
76063;SDS011;64762;52.006;8.424;2023-09-19T13:19:39;5.63;;;1.58;;
76063;SDS011;64762;52.006;8.424;2023-09-19T13:25:08;6.35;;;1.50;;
76063;SDS011;64762;52.006;8.424;2023-09-19T13:30:13;9.88;;;2.10;;
76063;SDS011;64762;52.006;8.424;2023-09-19T13:32:39;6.20;;;1.50;;
76063;SDS011;64762;52.006;8.424;2023-09-19T13:35:06;7.53;;;2.15;;
76063;SDS011;64762;52.006;8.424;2023-09-19T13:37:33;9.80;;;1.45;;
76063;SDS011;64762;52.006;8.424;2023-09-19T13:40:00;6.85;;;1.63;;
76063;SDS011;64762;52.006;8.424;2023-09-19T13:42:26;7.85;;;1.40;;
76063;SDS011;64762;52.006;8.424;2023-09-19T13:44:54;9.35;;;1.67;;
76063;SDS011;64762;52.006;8.424;2023-09-19T13:47:20;7.10;;;1.60;;
76063;SDS011;64762;52.006;8.424;2023-09-19T13:49:49;5.38;;;1.20;;
76063;SDS011;64762;52.006;8.424;2023-09-19T13:52:17;6.97;;;1.48;;
76063;SDS011;64762;52.006;8.424;2023-09-19T13:54:43;8.57;;;1.58;;
76063;SDS011;64762;52.006;8.424;2023-09-19T13:57:08;8.67;;;1.73;;
76063;SDS011;64762;52.006;8.424;2023-09-19T13:59:35;5.72;;;1.38;;
76063;SDS011;64762;52.006;8.424;2023-09-19T14:02:00;8.73;;;1.80;;
76063;SDS011;64762;52.006;8.424;2023-09-19T14:04:27;6.50;;;1.50;;
76063;SDS011;64762;52.006;8.424;2023-09-19T14:06:53;4.85;;;1.33;;
76063;SDS011;64762;52.006;8.424;2023-09-19T14:09:19;4.35;;;1.35;;
76063;SDS011;64762;52.006;8.424;2023-09-19T14:11:44;7.53;;;1.73;;
76063;SDS011;64762;52.006;8.424;2023-09-19T14:14:12;7.15;;;1.45;;
76063;SDS011;64762;52.006;8.424;2023-09-19T14:16:37;5.33;;;1.63;;
76063;SDS011;64762;52.006;8.424;2023-09-19T14:19:04;14.80;;;2.13;;
76063;SDS011;64762;52.006;8.424;2023-09-19T14:21:30;6.43;;;2.55;;
76063;SDS011;64762;52.006;8.424;2023-09-19T14:23:55;6.00;;;1.40;;
76063;SDS011;64762;52.006;8.424;2023-09-19T14:26:21;6.30;;;1.40;;
76063;SDS011;64762;52.006;8.424;2023-09-19T14:28:48;5.82;;;1.48;;
76063;SDS011;64762;52.006;8.424;2023-09-19T14:31:13;6.40;;;1.50;;
76063;SDS011;64762;52.006;8.424;2023-09-19T14:33:39;6.93;;;1.73;;
76063;SDS011;64762;52.006;8.424;2023-09-19T14:36:06;4.68;;;1.50;;
76063;SDS011;64762;52.006;8.424;2023-09-19T14:38:33;6.18;;;1.60;;
76063;SDS011;64762;52.006;8.424;2023-09-19T14:41:08;12.95;;;1.98;;
76063;SDS011;64762;52.006;8.424;2023-09-19T14:43:35;7.90;;;1.73;;
76063;SDS011;64762;52.006;8.424;2023-09-19T14:46:06;4.40;;;1.30;;
76063;SDS011;64762;52.006;8.424;2023-09-19T14:48:38;7.72;;;1.58;;
76063;SDS011;64762;52.006;8.424;2023-09-19T14:51:04;5.32;;;1.42;;
76063;SDS011;64762;52.006;8.424;2023-09-19T14:53:33;7.65;;;1.30;;
76063;SDS011;64762;52.006;8.424;2023-09-19T14:56:01;8.10;;;1.50;;
76063;SDS011;64762;52.006;8.424;2023-09-19T14:58:30;6.43;;;1.80;;
76063;SDS011;64762;52.006;8.424;2023-09-19T15:01:06;6.03;;;1.90;;
76063;SDS011;64762;52.006;8.424;2023-09-19T15:03:32;6.82;;;1.67;;
76063;SDS011;64762;52.006;8.424;2023-09-19T15:06:02;5.93;;;1.13;;
76063;SDS011;64762;52.006;8.424;2023-09-19T15:08:29;4.68;;;1.42;;
76063;SDS011;64762;52.006;8.424;2023-09-19T15:10:56;8.18;;;1.50;;
76063;SDS011;64762;52.006;8.424;2023-09-19T15:13:23;5.95;;;1.27;;
76063;SDS011;64762;52.006;8.424;2023-09-19T15:15:53;6.15;;;1.42;;
76063;SDS011;64762;52.006;8.424;2023-09-19T15:18:22;7.82;;;1.60;;
76063;SDS011;64762;52.006;8.424;2023-09-19T15:20:48;7.47;;;1.88;;
76063;SDS011;64762;52.006;8.424;2023-09-19T15:23:13;5.03;;;1.40;;
76063;SDS011;64762;52.006;8.424;2023-09-19T15:25:39;5.45;;;1.38;;
76063;SDS011;64762;52.006;8.424;2023-09-19T15:28:07;4.88;;;1.30;;
76063;SDS011;64762;52.006;8.424;2023-09-19T15:30:36;7.57;;;1.30;;
76063;SDS011;64762;52.006;8.424;2023-09-19T15:33:03;5.85;;;1.63;;
76063;SDS011;64762;52.006;8.424;2023-09-19T15:35:28;6.78;;;1.38;;
76063;SDS011;64762;52.006;8.424;2023-09-19T15:37:54;4.97;;;1.10;;
76063;SDS011;64762;52.006;8.424;2023-09-19T15:40:21;6.68;;;1.00;;
76063;SDS011;64762;52.006;8.424;2023-09-19T15:42:49;4.85;;;1.00;;
76063;SDS011;64762;52.006;8.424;2023-09-19T15:45:14;5.30;;;1.10;;
76063;SDS011;64762;52.006;8.424;2023-09-19T15:47:41;3.10;;;1.10;;
76063;SDS011;64762;52.006;8.424;2023-09-19T15:50:07;6.88;;;1.10;;
76063;SDS011;64762;52.006;8.424;2023-09-19T15:52:38;3.75;;;0.98;;
76063;SDS011;64762;52.006;8.424;2023-09-19T15:55:05;6.05;;;1.10;;
76063;SDS011;64762;52.006;8.424;2023-09-19T15:57:31;5.25;;;1.05;;
76063;SDS011;64762;52.006;8.424;2023-09-19T15:59:57;4.32;;;0.98;;
76063;SDS011;64762;52.006;8.424;2023-09-19T16:02:22;6.90;;;1.17;;
76063;SDS011;64762;52.006;8.424;2023-09-19T16:04:48;7.10;;;1.20;;
76063;SDS011;64762;52.006;8.424;2023-09-19T16:07:13;4.77;;;1.00;;
76063;SDS011;64762;52.006;8.424;2023-09-19T16:09:40;6.57;;;1.13;;
76063;SDS011;64762;52.006;8.424;2023-09-19T16:12:05;4.80;;;1.10;;
76063;SDS011;64762;52.006;8.424;2023-09-19T16:14:31;4.55;;;1.20;;